sensor_id;sensor_type;location;lat;lon;timestamp;temperature;humidity
53282;DHT22;39167;52.794;6.892;2022-07-29T00:00:35;15.90;99.90
53282;DHT22;39167;52.794;6.892;2022-07-29T00:03:02;15.80;99.90
53282;DHT22;39167;52.794;6.892;2022-07-29T00:05:27;15.80;99.90
53282;DHT22;39167;52.794;6.892;2022-07-29T00:07:53;15.80;99.90
53282;DHT22;39167;52.794;6.892;2022-07-29T00:10:19;15.80;99.90
53282;DHT22;39167;52.794;6.892;2022-07-29T00:12:45;15.80;99.90
53282;DHT22;39167;52.794;6.892;2022-07-29T00:15:11;15.80;99.90
53282;DHT22;39167;52.794;6.892;2022-07-29T00:17:36;15.80;99.90
53282;DHT22;39167;52.794;6.892;2022-07-29T00:20:03;15.70;99.90
53282;DHT22;39167;52.794;6.892;2022-07-29T00:22:29;15.70;99.90
53282;DHT22;39167;52.794;6.892;2022-07-29T00:24:55;15.70;99.90
53282;DHT22;39167;52.794;6.892;2022-07-29T00:27:21;15.70;99.90
53282;DHT22;39167;52.794;6.892;2022-07-29T00:29:47;15.70;99.90
53282;DHT22;39167;52.794;6.892;2022-07-29T00:32:13;15.60;99.90
53282;DHT22;39167;52.794;6.892;2022-07-29T00:34:39;15.60;99.90
53282;DHT22;39167;52.794;6.892;2022-07-29T00:37:23;15.60;99.90
53282;DHT22;39167;52.794;6.892;2022-07-29T00:39:49;15.60;99.90
53282;DHT22;39167;52.794;6.892;2022-07-29T00:42:15;15.50;99.90
53282;DHT22;39167;52.794;6.892;2022-07-29T00:44:42;15.50;99.90
53282;DHT22;39167;52.794;6.892;2022-07-29T00:47:09;15.50;99.90
53282;DHT22;39167;52.794;6.892;2022-07-29T00:49:35;15.50;99.90
53282;DHT22;39167;52.794;6.892;2022-07-29T00:52:04;15.50;99.90
53282;DHT22;39167;52.794;6.892;2022-07-29T00:54:30;15.50;99.90
53282;DHT22;39167;52.794;6.892;2022-07-29T00:56:59;15.50;99.90
53282;DHT22;39167;52.794;6.892;2022-07-29T00:59:26;15.50;99.90
53282;DHT22;39167;52.794;6.892;2022-07-29T01:01:53;15.40;99.90
53282;DHT22;39167;52.794;6.892;2022-07-29T01:04:19;15.50;99.90
53282;DHT22;39167;52.794;6.892;2022-07-29T01:06:45;15.50;99.90
53282;DHT22;39167;52.794;6.892;2022-07-29T01:09:12;15.50;99.90
53282;DHT22;39167;52.794;6.892;2022-07-29T01:11:38;15.50;99.90
53282;DHT22;39167;52.794;6.892;2022-07-29T01:14:07;15.50;99.90
53282;DHT22;39167;52.794;6.892;2022-07-29T01:16:38;15.50;99.90
53282;DHT22;39167;52.794;6.892;2022-07-29T01:21:57;15.40;99.90
53282;DHT22;39167;52.794;6.892;2022-07-29T01:27:50;15.40;99.90
53282;DHT22;39167;52.794;6.892;2022-07-29T01:30:17;15.40;99.90
53282;DHT22;39167;52.794;6.892;2022-07-29T01:32:44;15.40;99.90
53282;DHT22;39167;52.794;6.892;2022-07-29T01:35:17;15.40;99.90
53282;DHT22;39167;52.794;6.892;2022-07-29T01:37:47;15.40;99.90
53282;DHT22;39167;52.794;6.892;2022-07-29T01:43:14;15.30;99.90
53282;DHT22;39167;52.794;6.892;2022-07-29T01:45:43;15.30;99.90
53282;DHT22;39167;52.794;6.892;2022-07-29T01:48:18;15.30;99.90
53282;DHT22;39167;52.794;6.892;2022-07-29T01:50:48;15.30;99.90
53282;DHT22;39167;52.794;6.892;2022-07-29T01:53:23;15.30;99.90
53282;DHT22;39167;52.794;6.892;2022-07-29T01:55:52;15.20;99.90
53282;DHT22;39167;52.794;6.892;2022-07-29T01:58:19;15.20;99.90
53282;DHT22;39167;52.794;6.892;2022-07-29T02:00:46;15.20;99.90
53282;DHT22;39167;52.794;6.892;2022-07-29T02:03:14;15.20;99.90
53282;DHT22;39167;52.794;6.892;2022-07-29T02:05:43;15.20;99.90
53282;DHT22;39167;52.794;6.892;2022-07-29T02:08:10;15.20;99.90
53282;DHT22;39167;52.794;6.892;2022-07-29T02:10:38;15.20;99.90
53282;DHT22;39167;52.794;6.892;2022-07-29T02:13:06;15.20;99.90
53282;DHT22;39167;52.794;6.892;2022-07-29T02:15:34;15.20;99.90
53282;DHT22;39167;52.794;6.892;2022-07-29T02:18:18;15.20;99.90
53282;DHT22;39167;52.794;6.892;2022-07-29T02:20:48;15.10;99.90
53282;DHT22;39167;52.794;6.892;2022-07-29T02:23:18;15.10;99.90
53282;DHT22;39167;52.794;6.892;2022-07-29T02:25:50;15.10;99.90
53282;DHT22;39167;52.794;6.892;2022-07-29T02:28:17;15.10;99.90
53282;DHT22;39167;52.794;6.892;2022-07-29T02:30:45;15.10;99.90
53282;DHT22;39167;52.794;6.892;2022-07-29T02:33:13;15.10;99.90
53282;DHT22;39167;52.794;6.892;2022-07-29T02:35:40;15.10;99.90
53282;DHT22;39167;52.794;6.892;2022-07-29T02:38:09;15.10;99.90
53282;DHT22;39167;52.794;6.892;2022-07-29T02:40:56;15.10;99.90
53282;DHT22;39167;52.794;6.892;2022-07-29T02:43:22;15.10;99.90
53282;DHT22;39167;52.794;6.892;2022-07-29T02:45:51;15.10;99.90
53282;DHT22;39167;52.794;6.892;2022-07-29T02:48:22;15.10;99.90
53282;DHT22;39167;52.794;6.892;2022-07-29T02:50:59;15.00;99.90
53282;DHT22;39167;52.794;6.892;2022-07-29T02:53:27;15.00;99.90
53282;DHT22;39167;52.794;6.892;2022-07-29T02:55:59;15.00;99.90
53282;DHT22;39167;52.794;6.892;2022-07-29T02:58:29;15.00;99.90
53282;DHT22;39167;52.794;6.892;2022-07-29T03:01:03;15.00;99.90
53282;DHT22;39167;52.794;6.892;2022-07-29T03:03:32;15.00;99.90
53282;DHT22;39167;52.794;6.892;2022-07-29T03:06:00;15.00;99.90
53282;DHT22;39167;52.794;6.892;2022-07-29T03:08:27;15.00;99.90
53282;DHT22;39167;52.794;6.892;2022-07-29T03:10:54;15.00;99.90
53282;DHT22;39167;52.794;6.892;2022-07-29T03:13:20;15.00;99.90
53282;DHT22;39167;52.794;6.892;2022-07-29T03:15:47;15.00;99.90
53282;DHT22;39167;52.794;6.892;2022-07-29T03:18:13;15.00;99.90
53282;DHT22;39167;52.794;6.892;2022-07-29T03:20:39;15.00;99.90
53282;DHT22;39167;52.794;6.892;2022-07-29T03:23:06;15.00;99.90
53282;DHT22;39167;52.794;6.892;2022-07-29T03:25:31;15.00;99.90
53282;DHT22;39167;52.794;6.892;2022-07-29T03:27:57;15.00;99.90
53282;DHT22;39167;52.794;6.892;2022-07-29T03:30:24;15.00;99.90
53282;DHT22;39167;52.794;6.892;2022-07-29T03:32:51;15.00;99.90
53282;DHT22;39167;52.794;6.892;2022-07-29T03:35:16;14.90;99.90
53282;DHT22;39167;52.794;6.892;2022-07-29T03:37:43;14.90;99.90
53282;DHT22;39167;52.794;6.892;2022-07-29T03:40:13;14.90;99.90
53282;DHT22;39167;52.794;6.892;2022-07-29T03:42:40;14.90;99.90
53282;DHT22;39167;52.794;6.892;2022-07-29T03:45:10;14.90;99.90
53282;DHT22;39167;52.794;6.892;2022-07-29T03:47:40;14.90;99.90
53282;DHT22;39167;52.794;6.892;2022-07-29T03:50:10;14.90;99.90
53282;DHT22;39167;52.794;6.892;2022-07-29T03:52:37;14.90;99.90
53282;DHT22;39167;52.794;6.892;2022-07-29T03:55:04;14.90;99.90
53282;DHT22;39167;52.794;6.892;2022-07-29T03:57:30;14.80;99.90
53282;DHT22;39167;52.794;6.892;2022-07-29T03:59:57;14.80;99.90
53282;DHT22;39167;52.794;6.892;2022-07-29T04:02:23;14.80;99.90
53282;DHT22;39167;52.794;6.892;2022-07-29T04:04:51;14.80;99.90
53282;DHT22;39167;52.794;6.892;2022-07-29T04:07:16;14.80;99.90
53282;DHT22;39167;52.794;6.892;2022-07-29T04:09:42;14.80;99.90
53282;DHT22;39167;52.794;6.892;2022-07-29T04:12:08;14.70;99.90
53282;DHT22;39167;52.794;6.892;2022-07-29T04:14:36;14.80;99.90
53282;DHT22;39167;52.794;6.892;2022-07-29T04:17:02;14.80;99.90
53282;DHT22;39167;52.794;6.892;2022-07-29T04:19:29;14.80;99.90
53282;DHT22;39167;52.794;6.892;2022-07-29T04:21:55;14.70;99.90
53282;DHT22;39167;52.794;6.892;2022-07-29T04:24:21;14.80;99.90
53282;DHT22;39167;52.794;6.892;2022-07-29T04:26:47;14.80;99.90
53282;DHT22;39167;52.794;6.892;2022-07-29T04:29:13;14.80;99.90
53282;DHT22;39167;52.794;6.892;2022-07-29T04:31:40;14.80;99.90
53282;DHT22;39167;52.794;6.892;2022-07-29T04:34:06;14.80;99.90
53282;DHT22;39167;52.794;6.892;2022-07-29T04:36:32;14.80;99.90
53282;DHT22;39167;52.794;6.892;2022-07-29T04:38:58;14.80;99.90
53282;DHT22;39167;52.794;6.892;2022-07-29T04:41:24;14.80;99.90
53282;DHT22;39167;52.794;6.892;2022-07-29T04:43:50;14.80;99.90
53282;DHT22;39167;52.794;6.892;2022-07-29T04:46:15;14.80;99.90
53282;DHT22;39167;52.794;6.892;2022-07-29T04:48:41;14.80;99.90
53282;DHT22;39167;52.794;6.892;2022-07-29T04:51:07;14.80;99.90
53282;DHT22;39167;52.794;6.892;2022-07-29T04:53:32;14.70;99.90
53282;DHT22;39167;52.794;6.892;2022-07-29T04:55:58;14.80;99.90
53282;DHT22;39167;52.794;6.892;2022-07-29T04:58:24;14.80;99.90
53282;DHT22;39167;52.794;6.892;2022-07-29T05:00:50;14.80;99.90
53282;DHT22;39167;52.794;6.892;2022-07-29T05:03:16;14.80;99.90
53282;DHT22;39167;52.794;6.892;2022-07-29T05:05:41;14.80;99.90
53282;DHT22;39167;52.794;6.892;2022-07-29T05:08:08;14.90;99.90
53282;DHT22;39167;52.794;6.892;2022-07-29T05:10:34;14.80;99.90
53282;DHT22;39167;52.794;6.892;2022-07-29T05:13:04;14.80;99.90
53282;DHT22;39167;52.794;6.892;2022-07-29T05:15:31;14.90;99.90
53282;DHT22;39167;52.794;6.892;2022-07-29T05:17:57;14.90;99.90
53282;DHT22;39167;52.794;6.892;2022-07-29T05:20:23;14.90;99.90
53282;DHT22;39167;52.794;6.892;2022-07-29T05:22:54;15.00;99.90
53282;DHT22;39167;52.794;6.892;2022-07-29T05:25:20;15.00;99.90
53282;DHT22;39167;52.794;6.892;2022-07-29T05:27:45;15.00;99.90
53282;DHT22;39167;52.794;6.892;2022-07-29T05:30:11;15.00;99.90
53282;DHT22;39167;52.794;6.892;2022-07-29T05:32:37;15.10;99.90
53282;DHT22;39167;52.794;6.892;2022-07-29T05:35:03;15.10;99.90
53282;DHT22;39167;52.794;6.892;2022-07-29T05:37:29;15.10;99.90
53282;DHT22;39167;52.794;6.892;2022-07-29T05:39:54;15.10;99.90
53282;DHT22;39167;52.794;6.892;2022-07-29T05:42:20;15.20;99.90
53282;DHT22;39167;52.794;6.892;2022-07-29T05:44:46;15.20;99.90
53282;DHT22;39167;52.794;6.892;2022-07-29T05:47:13;15.20;99.90
53282;DHT22;39167;52.794;6.892;2022-07-29T05:49:39;15.20;99.90
53282;DHT22;39167;52.794;6.892;2022-07-29T05:52:04;15.30;99.90
53282;DHT22;39167;52.794;6.892;2022-07-29T05:54:30;15.30;99.90
53282;DHT22;39167;52.794;6.892;2022-07-29T05:56:56;15.30;99.90
53282;DHT22;39167;52.794;6.892;2022-07-29T05:59:21;15.30;99.90
53282;DHT22;39167;52.794;6.892;2022-07-29T06:01:47;15.30;99.90
53282;DHT22;39167;52.794;6.892;2022-07-29T06:04:13;15.30;99.90
53282;DHT22;39167;52.794;6.892;2022-07-29T06:06:38;15.30;99.90
53282;DHT22;39167;52.794;6.892;2022-07-29T06:09:04;15.40;99.90
53282;DHT22;39167;52.794;6.892;2022-07-29T06:11:30;15.40;99.90
53282;DHT22;39167;52.794;6.892;2022-07-29T06:13:56;15.40;99.90
53282;DHT22;39167;52.794;6.892;2022-07-29T06:16:21;15.40;99.90
53282;DHT22;39167;52.794;6.892;2022-07-29T06:18:47;15.40;99.90
53282;DHT22;39167;52.794;6.892;2022-07-29T06:21:14;15.50;99.90
53282;DHT22;39167;52.794;6.892;2022-07-29T06:23:40;15.50;99.90
53282;DHT22;39167;52.794;6.892;2022-07-29T06:26:05;15.70;99.90
53282;DHT22;39167;52.794;6.892;2022-07-29T06:28:32;15.60;99.90
53282;DHT22;39167;52.794;6.892;2022-07-29T06:30:58;15.60;99.90
53282;DHT22;39167;52.794;6.892;2022-07-29T06:33:24;15.70;99.90
53282;DHT22;39167;52.794;6.892;2022-07-29T06:35:50;15.70;99.90
53282;DHT22;39167;52.794;6.892;2022-07-29T06:38:15;15.80;99.90
53282;DHT22;39167;52.794;6.892;2022-07-29T06:40:45;15.80;99.90
53282;DHT22;39167;52.794;6.892;2022-07-29T06:43:35;15.80;99.90
53282;DHT22;39167;52.794;6.892;2022-07-29T06:46:07;15.90;99.90
53282;DHT22;39167;52.794;6.892;2022-07-29T06:48:34;16.00;99.90
53282;DHT22;39167;52.794;6.892;2022-07-29T06:51:02;16.00;99.90
53282;DHT22;39167;52.794;6.892;2022-07-29T06:53:28;16.10;99.90
53282;DHT22;39167;52.794;6.892;2022-07-29T06:55:54;16.10;99.90
53282;DHT22;39167;52.794;6.892;2022-07-29T06:58:20;16.10;99.90
53282;DHT22;39167;52.794;6.892;2022-07-29T07:00:47;16.20;99.90
53282;DHT22;39167;52.794;6.892;2022-07-29T07:03:13;16.20;99.90
53282;DHT22;39167;52.794;6.892;2022-07-29T07:05:39;16.30;99.90
53282;DHT22;39167;52.794;6.892;2022-07-29T07:08:05;16.40;99.90
53282;DHT22;39167;52.794;6.892;2022-07-29T07:10:31;16.40;99.90
53282;DHT22;39167;52.794;6.892;2022-07-29T07:12:57;16.50;99.90
53282;DHT22;39167;52.794;6.892;2022-07-29T07:15:23;16.50;99.90
53282;DHT22;39167;52.794;6.892;2022-07-29T07:17:49;16.60;99.90
53282;DHT22;39167;52.794;6.892;2022-07-29T07:20:16;16.60;99.90
53282;DHT22;39167;52.794;6.892;2022-07-29T07:22:41;16.70;99.90
53282;DHT22;39167;52.794;6.892;2022-07-29T07:25:07;16.70;99.90
53282;DHT22;39167;52.794;6.892;2022-07-29T07:27:34;16.80;99.90
53282;DHT22;39167;52.794;6.892;2022-07-29T07:30:00;16.80;99.90
53282;DHT22;39167;52.794;6.892;2022-07-29T07:32:25;16.80;99.90
53282;DHT22;39167;52.794;6.892;2022-07-29T07:34:51;16.90;99.90
53282;DHT22;39167;52.794;6.892;2022-07-29T07:37:16;17.00;99.90
53282;DHT22;39167;52.794;6.892;2022-07-29T07:39:44;17.00;99.90
53282;DHT22;39167;52.794;6.892;2022-07-29T07:42:10;17.00;99.90
53282;DHT22;39167;52.794;6.892;2022-07-29T07:44:38;17.10;99.90
53282;DHT22;39167;52.794;6.892;2022-07-29T07:47:05;17.10;99.90
53282;DHT22;39167;52.794;6.892;2022-07-29T07:49:30;17.20;99.90
53282;DHT22;39167;52.794;6.892;2022-07-29T07:51:56;17.30;99.90
53282;DHT22;39167;52.794;6.892;2022-07-29T07:54:22;17.30;99.90
53282;DHT22;39167;52.794;6.892;2022-07-29T07:56:48;17.30;99.90
53282;DHT22;39167;52.794;6.892;2022-07-29T07:59:16;17.40;99.90
53282;DHT22;39167;52.794;6.892;2022-07-29T08:01:42;17.50;99.90
53282;DHT22;39167;52.794;6.892;2022-07-29T08:04:08;17.60;99.90
53282;DHT22;39167;52.794;6.892;2022-07-29T08:06:34;17.60;99.90
53282;DHT22;39167;52.794;6.892;2022-07-29T08:09:02;17.70;99.90
53282;DHT22;39167;52.794;6.892;2022-07-29T08:11:28;17.80;99.90
53282;DHT22;39167;52.794;6.892;2022-07-29T08:13:54;17.90;99.90
53282;DHT22;39167;52.794;6.892;2022-07-29T08:16:20;17.90;99.90
53282;DHT22;39167;52.794;6.892;2022-07-29T08:18:46;18.00;99.90
53282;DHT22;39167;52.794;6.892;2022-07-29T08:21:13;18.00;99.90
53282;DHT22;39167;52.794;6.892;2022-07-29T08:23:39;18.10;99.90
53282;DHT22;39167;52.794;6.892;2022-07-29T08:26:11;18.10;99.90
53282;DHT22;39167;52.794;6.892;2022-07-29T08:28:38;18.10;99.90
53282;DHT22;39167;52.794;6.892;2022-07-29T08:31:04;18.10;99.90
53282;DHT22;39167;52.794;6.892;2022-07-29T08:33:29;18.20;99.90
53282;DHT22;39167;52.794;6.892;2022-07-29T08:35:55;18.10;99.90
53282;DHT22;39167;52.794;6.892;2022-07-29T08:38:21;18.20;99.90
53282;DHT22;39167;52.794;6.892;2022-07-29T08:40:47;18.20;99.90
53282;DHT22;39167;52.794;6.892;2022-07-29T08:43:13;18.20;99.90
53282;DHT22;39167;52.794;6.892;2022-07-29T08:45:47;18.30;99.90
53282;DHT22;39167;52.794;6.892;2022-07-29T08:48:17;18.40;99.90
53282;DHT22;39167;52.794;6.892;2022-07-29T08:50:44;18.40;99.90
53282;DHT22;39167;52.794;6.892;2022-07-29T08:53:12;18.50;99.90
53282;DHT22;39167;52.794;6.892;2022-07-29T08:55:46;18.70;99.90
53282;DHT22;39167;52.794;6.892;2022-07-29T08:58:14;18.70;99.90
53282;DHT22;39167;52.794;6.892;2022-07-29T09:00:50;18.80;99.90
53282;DHT22;39167;52.794;6.892;2022-07-29T09:03:18;18.90;99.90
53282;DHT22;39167;52.794;6.892;2022-07-29T09:05:48;19.00;99.90
53282;DHT22;39167;52.794;6.892;2022-07-29T09:08:14;19.00;99.90
53282;DHT22;39167;52.794;6.892;2022-07-29T09:10:40;19.10;99.90
53282;DHT22;39167;52.794;6.892;2022-07-29T09:13:06;19.20;99.90
53282;DHT22;39167;52.794;6.892;2022-07-29T09:15:32;19.20;99.90
53282;DHT22;39167;52.794;6.892;2022-07-29T09:17:58;19.30;99.90
53282;DHT22;39167;52.794;6.892;2022-07-29T09:20:25;19.40;99.90
53282;DHT22;39167;52.794;6.892;2022-07-29T09:22:52;19.40;99.90
53282;DHT22;39167;52.794;6.892;2022-07-29T09:25:38;19.50;99.90
53282;DHT22;39167;52.794;6.892;2022-07-29T09:28:10;19.50;99.90
53282;DHT22;39167;52.794;6.892;2022-07-29T09:30:57;19.60;99.90
53282;DHT22;39167;52.794;6.892;2022-07-29T09:33:31;19.60;99.90
53282;DHT22;39167;52.794;6.892;2022-07-29T09:36:05;19.60;99.90
53282;DHT22;39167;52.794;6.892;2022-07-29T09:38:32;19.60;99.90
53282;DHT22;39167;52.794;6.892;2022-07-29T09:41:00;19.60;99.90
53282;DHT22;39167;52.794;6.892;2022-07-29T09:43:26;19.70;99.90
53282;DHT22;39167;52.794;6.892;2022-07-29T09:45:52;19.70;99.90
53282;DHT22;39167;52.794;6.892;2022-07-29T09:48:21;19.80;99.90
53282;DHT22;39167;52.794;6.892;2022-07-29T09:50:48;19.80;99.90
53282;DHT22;39167;52.794;6.892;2022-07-29T09:53:38;19.80;99.90
53282;DHT22;39167;52.794;6.892;2022-07-29T09:56:05;19.80;99.90
53282;DHT22;39167;52.794;6.892;2022-07-29T09:58:31;19.90;99.90
53282;DHT22;39167;52.794;6.892;2022-07-29T10:00:59;20.00;99.90
53282;DHT22;39167;52.794;6.892;2022-07-29T10:03:25;19.90;99.90
53282;DHT22;39167;52.794;6.892;2022-07-29T10:06:08;19.90;99.90
53282;DHT22;39167;52.794;6.892;2022-07-29T10:08:34;19.90;99.90
53282;DHT22;39167;52.794;6.892;2022-07-29T10:11:14;19.90;99.90
53282;DHT22;39167;52.794;6.892;2022-07-29T10:13:42;19.90;99.90
53282;DHT22;39167;52.794;6.892;2022-07-29T10:16:08;19.90;99.90
53282;DHT22;39167;52.794;6.892;2022-07-29T10:18:34;19.90;99.90
53282;DHT22;39167;52.794;6.892;2022-07-29T10:21:01;19.80;99.90
53282;DHT22;39167;52.794;6.892;2022-07-29T10:23:28;19.80;99.90
53282;DHT22;39167;52.794;6.892;2022-07-29T10:25:54;19.80;99.90
53282;DHT22;39167;52.794;6.892;2022-07-29T10:28:20;19.80;99.90
53282;DHT22;39167;52.794;6.892;2022-07-29T10:30:47;19.80;99.90
53282;DHT22;39167;52.794;6.892;2022-07-29T10:42:15;19.60;99.90
53282;DHT22;39167;52.794;6.892;2022-07-29T10:44:42;19.50;99.90
53282;DHT22;39167;52.794;6.892;2022-07-29T10:47:22;19.50;99.90
53282;DHT22;39167;52.794;6.892;2022-07-29T10:50:04;19.50;99.90
53282;DHT22;39167;52.794;6.892;2022-07-29T10:55:34;19.50;99.90
53282;DHT22;39167;52.794;6.892;2022-07-29T10:58:31;19.40;99.90
53282;DHT22;39167;52.794;6.892;2022-07-29T11:00:56;19.40;99.90
53282;DHT22;39167;52.794;6.892;2022-07-29T11:03:44;19.40;99.90
53282;DHT22;39167;52.794;6.892;2022-07-29T11:06:11;19.40;99.90
53282;DHT22;39167;52.794;6.892;2022-07-29T11:08:37;19.30;99.90
53282;DHT22;39167;52.794;6.892;2022-07-29T11:13:45;19.30;99.90
53282;DHT22;39167;52.794;6.892;2022-07-29T11:16:16;19.40;99.90
53282;DHT22;39167;52.794;6.892;2022-07-29T11:21:37;19.40;99.90
53282;DHT22;39167;52.794;6.892;2022-07-29T11:24:18;19.40;99.90
53282;DHT22;39167;52.794;6.892;2022-07-29T11:26:44;19.40;99.90
53282;DHT22;39167;52.794;6.892;2022-07-29T11:29:20;19.50;99.90
53282;DHT22;39167;52.794;6.892;2022-07-29T11:31:51;19.50;99.90
53282;DHT22;39167;52.794;6.892;2022-07-29T11:34:20;19.60;99.90
53282;DHT22;39167;52.794;6.892;2022-07-29T11:40:27;19.70;99.90
53282;DHT22;39167;52.794;6.892;2022-07-29T11:45:21;19.80;99.90
53282;DHT22;39167;52.794;6.892;2022-07-29T11:47:51;19.90;99.90
53282;DHT22;39167;52.794;6.892;2022-07-29T11:50:31;19.90;99.90
53282;DHT22;39167;52.794;6.892;2022-07-29T11:52:57;20.00;99.90
53282;DHT22;39167;52.794;6.892;2022-07-29T11:55:24;20.00;99.90
53282;DHT22;39167;52.794;6.892;2022-07-29T11:57:52;20.10;99.90
53282;DHT22;39167;52.794;6.892;2022-07-29T12:00:27;20.10;99.90
53282;DHT22;39167;52.794;6.892;2022-07-29T12:02:54;20.10;99.90
53282;DHT22;39167;52.794;6.892;2022-07-29T12:05:20;20.20;99.90
53282;DHT22;39167;52.794;6.892;2022-07-29T12:07:47;20.30;99.90
53282;DHT22;39167;52.794;6.892;2022-07-29T12:10:13;20.30;99.90
53282;DHT22;39167;52.794;6.892;2022-07-29T12:12:39;20.40;99.90
53282;DHT22;39167;52.794;6.892;2022-07-29T12:15:18;20.40;99.90
53282;DHT22;39167;52.794;6.892;2022-07-29T12:17:47;20.50;99.90
53282;DHT22;39167;52.794;6.892;2022-07-29T12:20:14;20.50;99.90
53282;DHT22;39167;52.794;6.892;2022-07-29T12:22:47;20.60;99.90
53282;DHT22;39167;52.794;6.892;2022-07-29T12:25:14;20.70;99.90
53282;DHT22;39167;52.794;6.892;2022-07-29T12:27:42;20.70;99.90
53282;DHT22;39167;52.794;6.892;2022-07-29T12:30:14;20.80;99.90
53282;DHT22;39167;52.794;6.892;2022-07-29T12:32:46;20.80;99.90
53282;DHT22;39167;52.794;6.892;2022-07-29T12:35:17;20.80;99.90
53282;DHT22;39167;52.794;6.892;2022-07-29T12:37:46;20.80;99.90
53282;DHT22;39167;52.794;6.892;2022-07-29T12:40:15;20.80;99.90
53282;DHT22;39167;52.794;6.892;2022-07-29T12:43:08;20.80;99.90
53282;DHT22;39167;52.794;6.892;2022-07-29T12:45:36;20.90;99.90
53282;DHT22;39167;52.794;6.892;2022-07-29T12:48:02;20.90;99.90
53282;DHT22;39167;52.794;6.892;2022-07-29T12:50:28;20.90;99.90
53282;DHT22;39167;52.794;6.892;2022-07-29T12:52:54;21.00;99.90
53282;DHT22;39167;52.794;6.892;2022-07-29T12:55:45;21.00;99.90
53282;DHT22;39167;52.794;6.892;2022-07-29T12:58:40;21.10;99.90
53282;DHT22;39167;52.794;6.892;2022-07-29T13:01:12;21.10;99.90
53282;DHT22;39167;52.794;6.892;2022-07-29T13:06:32;21.20;99.90
53282;DHT22;39167;52.794;6.892;2022-07-29T13:09:08;21.30;99.90
53282;DHT22;39167;52.794;6.892;2022-07-29T13:14:01;21.40;99.90
53282;DHT22;39167;52.794;6.892;2022-07-29T13:16:27;21.40;99.90
53282;DHT22;39167;52.794;6.892;2022-07-29T13:19:07;21.60;99.90
53282;DHT22;39167;52.794;6.892;2022-07-29T13:21:33;21.70;99.90
53282;DHT22;39167;52.794;6.892;2022-07-29T13:23:59;21.70;99.90
53282;DHT22;39167;52.794;6.892;2022-07-29T13:26:25;21.70;99.90
53282;DHT22;39167;52.794;6.892;2022-07-29T13:28:51;21.80;99.90
53282;DHT22;39167;52.794;6.892;2022-07-29T13:31:16;21.90;99.90
53282;DHT22;39167;52.794;6.892;2022-07-29T13:33:42;21.90;99.90
53282;DHT22;39167;52.794;6.892;2022-07-29T13:36:08;22.00;99.90
53282;DHT22;39167;52.794;6.892;2022-07-29T13:38:33;22.00;99.90
53282;DHT22;39167;52.794;6.892;2022-07-29T13:40:59;22.10;99.90
53282;DHT22;39167;52.794;6.892;2022-07-29T13:43:26;22.10;99.90
53282;DHT22;39167;52.794;6.892;2022-07-29T13:45:51;22.20;99.90
53282;DHT22;39167;52.794;6.892;2022-07-29T13:48:17;22.30;99.90
53282;DHT22;39167;52.794;6.892;2022-07-29T13:50:43;22.30;99.90
53282;DHT22;39167;52.794;6.892;2022-07-29T13:53:09;22.30;99.90
53282;DHT22;39167;52.794;6.892;2022-07-29T13:55:35;22.40;99.90
53282;DHT22;39167;52.794;6.892;2022-07-29T13:58:01;22.40;99.90
53282;DHT22;39167;52.794;6.892;2022-07-29T14:00:26;22.50;99.90
53282;DHT22;39167;52.794;6.892;2022-07-29T14:02:52;22.50;99.90
53282;DHT22;39167;52.794;6.892;2022-07-29T14:05:18;22.60;99.90
53282;DHT22;39167;52.794;6.892;2022-07-29T14:07:44;22.70;99.90
53282;DHT22;39167;52.794;6.892;2022-07-29T14:10:10;22.80;99.90
53282;DHT22;39167;52.794;6.892;2022-07-29T14:12:35;22.80;99.90
53282;DHT22;39167;52.794;6.892;2022-07-29T14:15:02;22.90;99.90
53282;DHT22;39167;52.794;6.892;2022-07-29T14:17:27;23.00;99.90
53282;DHT22;39167;52.794;6.892;2022-07-29T14:19:53;22.90;99.90
53282;DHT22;39167;52.794;6.892;2022-07-29T14:22:19;23.00;99.90
53282;DHT22;39167;52.794;6.892;2022-07-29T14:24:44;23.00;99.90
53282;DHT22;39167;52.794;6.892;2022-07-29T14:27:11;23.00;99.90
53282;DHT22;39167;52.794;6.892;2022-07-29T14:29:36;23.00;99.90
53282;DHT22;39167;52.794;6.892;2022-07-29T14:32:02;23.00;99.90
53282;DHT22;39167;52.794;6.892;2022-07-29T14:34:28;23.00;99.90
53282;DHT22;39167;52.794;6.892;2022-07-29T14:36:54;23.10;99.90
53282;DHT22;39167;52.794;6.892;2022-07-29T14:39:23;23.10;99.90
53282;DHT22;39167;52.794;6.892;2022-07-29T14:41:50;23.10;99.90
53282;DHT22;39167;52.794;6.892;2022-07-29T14:44:17;23.10;99.90
53282;DHT22;39167;52.794;6.892;2022-07-29T14:46:43;23.10;99.90
53282;DHT22;39167;52.794;6.892;2022-07-29T14:49:09;23.10;99.90
53282;DHT22;39167;52.794;6.892;2022-07-29T14:51:35;23.10;99.90
53282;DHT22;39167;52.794;6.892;2022-07-29T14:54:00;23.10;99.90
53282;DHT22;39167;52.794;6.892;2022-07-29T14:56:26;23.00;99.90
53282;DHT22;39167;52.794;6.892;2022-07-29T14:58:52;23.00;99.90
53282;DHT22;39167;52.794;6.892;2022-07-29T15:01:18;23.00;99.90
53282;DHT22;39167;52.794;6.892;2022-07-29T15:03:44;23.00;99.90
53282;DHT22;39167;52.794;6.892;2022-07-29T15:06:09;23.10;99.90
53282;DHT22;39167;52.794;6.892;2022-07-29T15:08:35;23.20;99.90
53282;DHT22;39167;52.794;6.892;2022-07-29T15:11:01;23.50;99.90
53282;DHT22;39167;52.794;6.892;2022-07-29T15:13:26;23.70;99.90
53282;DHT22;39167;52.794;6.892;2022-07-29T15:15:52;24.00;99.90
53282;DHT22;39167;52.794;6.892;2022-07-29T15:18:18;24.10;99.90
53282;DHT22;39167;52.794;6.892;2022-07-29T15:20:43;24.30;99.90
53282;DHT22;39167;52.794;6.892;2022-07-29T15:23:12;24.50;99.90
53282;DHT22;39167;52.794;6.892;2022-07-29T15:25:39;24.60;99.90
53282;DHT22;39167;52.794;6.892;2022-07-29T15:28:05;24.70;99.90
53282;DHT22;39167;52.794;6.892;2022-07-29T15:30:34;24.80;99.90
53282;DHT22;39167;52.794;6.892;2022-07-29T15:33:07;24.70;99.90
53282;DHT22;39167;52.794;6.892;2022-07-29T15:35:34;24.70;99.90
53282;DHT22;39167;52.794;6.892;2022-07-29T15:38:00;24.70;99.90
53282;DHT22;39167;52.794;6.892;2022-07-29T15:40:27;24.60;99.90
53282;DHT22;39167;52.794;6.892;2022-07-29T15:42:52;24.60;99.90
53282;DHT22;39167;52.794;6.892;2022-07-29T15:45:18;24.50;99.90
53282;DHT22;39167;52.794;6.892;2022-07-29T15:47:44;24.50;99.90
53282;DHT22;39167;52.794;6.892;2022-07-29T15:50:09;24.50;99.90
53282;DHT22;39167;52.794;6.892;2022-07-29T15:52:40;24.50;99.90
53282;DHT22;39167;52.794;6.892;2022-07-29T15:55:07;24.40;99.90
53282;DHT22;39167;52.794;6.892;2022-07-29T15:57:33;24.30;99.90
53282;DHT22;39167;52.794;6.892;2022-07-29T15:59:59;24.30;99.90
53282;DHT22;39167;52.794;6.892;2022-07-29T16:02:25;24.30;99.90
53282;DHT22;39167;52.794;6.892;2022-07-29T16:04:50;24.20;99.90
53282;DHT22;39167;52.794;6.892;2022-07-29T16:07:16;24.20;99.90
53282;DHT22;39167;52.794;6.892;2022-07-29T16:09:42;24.20;99.90
53282;DHT22;39167;52.794;6.892;2022-07-29T16:12:08;24.30;99.90